createdAt,value
2022-09-15T00:01:24.221Z,70.77
2022-09-15T00:04:30.229Z,70.70
2022-09-15T00:07:34.477Z,70.74
2022-09-15T00:10:40.373Z,70.91
2022-09-15T00:13:47.119Z,71.14
2022-09-15T00:16:53.011Z,71.27
2022-09-15T00:19:59.643Z,71.43
2022-09-15T00:23:05.545Z,71.52
2022-09-15T00:26:13.743Z,71.53
2022-09-15T00:29:19.698Z,71.75
2022-09-15T00:32:23.905Z,71.90
2022-09-15T00:35:30.076Z,72.03
2022-09-15T00:38:37.377Z,71.62
2022-09-15T00:41:43.661Z,71.58
2022-09-15T00:44:56.603Z,71.57
2022-09-15T00:48:02.774Z,71.47
2022-09-15T00:51:10.969Z,71.43
2022-09-15T00:54:21.413Z,71.36
2022-09-15T00:57:37.275Z,71.32
2022-09-15T01:00:47.883Z,71.07
2022-09-15T01:03:53.815Z,71.03
2022-09-15T01:07:04.243Z,70.90
2022-09-15T01:10:14.647Z,70.70
2022-09-15T01:13:20.929Z,71.04
2022-09-15T01:16:34.453Z,71.02
2022-09-15T01:20:25.026Z,71.39
2022-09-15T01:23:50.823Z,71.81
2022-09-15T01:27:37.577Z,71.81
2022-09-15T01:30:41.449Z,71.74
2022-09-15T01:33:51.474Z,71.39
2022-09-15T01:37:03.438Z,71.24
2022-09-15T01:40:13.449Z,71.12
2022-09-15T01:43:21.742Z,71.04
2022-09-15T01:46:31.027Z,70.91
2022-09-15T01:49:44.102Z,71.02
2022-09-15T01:52:53.469Z,71.26
2022-09-15T01:56:02.626Z,71.26
2022-09-15T01:59:09.566Z,71.13
2022-09-15T02:02:20.493Z,71.05
2022-09-15T02:05:33.821Z,70.78
2022-09-15T02:08:45.402Z,70.87
2022-09-15T02:12:01.909Z,71.16
2022-09-15T02:15:12.205Z,71.07
2022-09-15T02:18:24.486Z,71.14
2022-09-15T02:21:37.447Z,70.95
2022-09-15T02:24:47.194Z,71.31
2022-09-15T02:27:56.593Z,71.15
2022-09-15T02:31:05.275Z,71.19
2022-09-15T02:34:16.211Z,71.17
2022-09-15T02:37:24.480Z,70.90
2022-09-15T02:40:32.413Z,71.09
2022-09-15T02:43:47.366Z,71.14
2022-09-15T02:46:53.665Z,70.86
2022-09-15T02:49:59.537Z,70.83
2022-09-15T02:53:06.158Z,70.53
2022-09-15T02:56:12.306Z,70.77
2022-09-15T02:59:18.415Z,70.73
2022-09-15T03:02:25.119Z,70.86
2022-09-15T03:05:32.338Z,71.05
2022-09-15T03:08:38.271Z,70.61
2022-09-15T03:11:44.123Z,70.68
2022-09-15T03:14:50.562Z,70.19
2022-09-15T03:17:56.946Z,70.17
2022-09-15T03:21:03.589Z,70.01
2022-09-15T03:24:09.630Z,70.75
2022-09-15T03:27:14.274Z,70.70
2022-09-15T03:30:20.262Z,71.09
2022-09-15T03:33:26.745Z,72.02
2022-09-15T03:36:32.657Z,72.07
2022-09-15T03:39:38.764Z,72.23
2022-09-15T03:42:44.629Z,72.01
2022-09-15T03:45:50.524Z,71.35
2022-09-15T03:48:57.141Z,71.04
2022-09-15T03:52:03.557Z,71.06
2022-09-15T03:55:10.439Z,70.99
2022-09-15T03:58:16.563Z,71.12
2022-09-15T04:01:23.250Z,71.30
2022-09-15T04:04:29.623Z,71.42
2022-09-15T04:07:35.478Z,71.59
2022-09-15T04:10:43.090Z,71.54
2022-09-15T04:13:49.430Z,71.63
2022-09-15T04:16:55.302Z,71.57
2022-09-15T04:20:01.183Z,71.63
2022-09-15T04:23:07.097Z,71.82
2022-09-15T04:26:20.350Z,71.91
2022-09-15T04:29:26.410Z,71.92
2022-09-15T04:32:31.226Z,72.07
2022-09-15T04:35:37.078Z,72.09
2022-09-15T04:38:43.509Z,72.18
2022-09-15T04:41:49.388Z,72.11
2022-09-15T04:44:55.279Z,71.79
2022-09-15T04:48:01.456Z,71.69
2022-09-15T04:51:09.715Z,71.17
2022-09-15T04:54:15.578Z,70.58
2022-09-15T04:57:21.464Z,70.42
2022-09-15T05:00:27.871Z,70.44
2022-09-15T05:03:36.398Z,70.42
2022-09-15T05:06:42.298Z,70.40
2022-09-15T05:09:48.147Z,70.39
2022-09-15T05:12:54.408Z,70.65
2022-09-15T05:16:07.183Z,70.86
2022-09-15T05:19:13.653Z,70.91
2022-09-15T05:22:19.534Z,71.02
2022-09-15T05:25:25.694Z,71.25
2022-09-15T05:28:33.925Z,71.67
2022-09-15T05:31:39.868Z,71.90
2022-09-15T05:34:44.327Z,72.32
2022-09-15T05:37:50.541Z,72.58
2022-09-15T05:40:56.405Z,72.75
2022-09-15T05:44:02.261Z,72.86
2022-09-15T05:47:08.578Z,73.05
2022-09-15T05:50:14.966Z,72.95
2022-09-15T05:53:21.712Z,72.64
2022-09-15T05:56:27.618Z,72.68
2022-09-15T05:59:33.490Z,72.81
2022-09-15T06:02:39.387Z,72.77
2022-09-15T06:05:45.418Z,72.64
2022-09-15T06:08:58.125Z,72.90
2022-09-15T06:12:05.860Z,72.93
2022-09-15T06:15:13.219Z,73.17
2022-09-15T06:18:19.096Z,73.59
2022-09-15T06:21:26.781Z,73.61
2022-09-15T06:24:32.658Z,73.80
2022-09-15T06:27:38.526Z,73.73
2022-09-15T06:30:49.028Z,74.14
2022-09-15T06:33:57.881Z,74.03
2022-09-15T06:37:03.814Z,73.99
2022-09-15T06:40:12.085Z,73.81
2022-09-15T06:43:17.953Z,73.26
2022-09-15T06:46:25.652Z,73.05
2022-09-15T06:49:31.962Z,73.69
2022-09-15T06:52:37.835Z,73.43
2022-09-15T06:55:43.716Z,73.10
2022-09-15T06:58:50.306Z,72.80
2022-09-15T07:02:00.337Z,71.89
2022-09-15T07:05:11.637Z,71.98
2022-09-15T07:08:17.563Z,71.46
2022-09-15T07:11:21.781Z,71.64
2022-09-15T07:14:27.641Z,71.67
2022-09-15T07:17:33.534Z,71.83
2022-09-15T07:20:39.690Z,71.36
2022-09-15T07:23:46.370Z,71.01
2022-09-15T07:26:52.193Z,70.26
2022-09-15T07:29:58.106Z,70.27
2022-09-15T07:33:02.305Z,69.83
2022-09-15T07:36:10.255Z,69.58
2022-09-15T07:39:16.108Z,69.07
2022-09-15T07:42:21.975Z,68.94
2022-09-15T07:45:28.007Z,68.62
2022-09-15T07:48:34.225Z,67.94
2022-09-15T07:51:40.070Z,67.42
2022-09-15T07:54:45.921Z,67.28
2022-09-15T07:57:59.722Z,67.39
2022-09-15T08:01:07.555Z,67.23
2022-09-15T08:04:13.505Z,66.32
2022-09-15T08:07:17.773Z,65.64
2022-09-15T08:10:25.344Z,66.04
2022-09-15T08:13:31.652Z,65.94
2022-09-15T08:16:37.680Z,65.01
2022-09-15T08:19:43.667Z,65.31
2022-09-15T08:22:48.311Z,64.75
2022-09-15T08:25:54.196Z,65.02
2022-09-15T08:28:59.355Z,65.50
2022-09-15T08:32:05.643Z,65.25
2022-09-15T08:35:12.257Z,65.35
2022-09-15T08:38:18.108Z,65.39
2022-09-15T08:41:26.958Z,65.66
2022-09-15T08:44:44.486Z,65.76
2022-09-15T08:47:56.083Z,66.39
2022-09-15T08:51:06.968Z,66.79
2022-09-15T08:54:20.717Z,66.29
2022-09-15T08:57:27.677Z,67.18
2022-09-15T09:00:33.947Z,66.73
2022-09-15T09:03:59.176Z,66.17
2022-09-15T09:07:18.539Z,66.39
2022-09-15T09:10:33.111Z,67.07
2022-09-15T09:13:47.921Z,67.26
2022-09-15T09:17:04.360Z,67.22
2022-09-15T09:20:32.166Z,67.15
2022-09-15T09:23:48.657Z,67.83
2022-09-15T09:26:56.639Z,68.20
2022-09-15T09:30:08.767Z,68.63
2022-09-15T09:33:26.867Z,69.06
2022-09-15T09:36:32.799Z,69.27
2022-09-15T09:39:37.245Z,69.31
2022-09-15T09:42:44.706Z,69.31
2022-09-15T09:45:50.620Z,69.03
2022-09-15T09:48:58.430Z,68.97
2022-09-15T09:52:05.302Z,68.80
2022-09-15T09:55:24.003Z,69.28
2022-09-15T09:58:29.860Z,69.06
2022-09-15T10:01:35.781Z,69.10
2022-09-15T10:04:40.426Z,68.93
2022-09-15T10:07:46.409Z,68.99
2022-09-15T10:10:55.988Z,68.77
2022-09-15T10:14:02.174Z,68.11
2022-09-15T10:17:11.860Z,67.56
2022-09-15T10:20:32.581Z,67.18
2022-09-15T10:23:38.804Z,66.82
2022-09-15T10:26:46.078Z,66.40
2022-09-15T10:29:52.022Z,66.61
2022-09-15T10:32:56.909Z,66.21
2022-09-15T10:36:12.973Z,66.07
2022-09-15T10:39:31.881Z,66.16
2022-09-15T10:43:00.528Z,66.23
2022-09-15T10:46:13.912Z,66.20
2022-09-15T10:49:34.571Z,66.24
2022-09-15T10:52:50.666Z,66.47
2022-09-15T10:56:04.635Z,66.15
2022-09-15T10:59:35.501Z,65.82
2022-09-15T11:03:23.593Z,65.46
2022-09-15T11:06:37.641Z,65.36
2022-09-15T11:09:48.385Z,65.10
2022-09-15T11:13:03.985Z,65.48
2022-09-15T11:16:17.346Z,65.46
2022-09-15T11:19:38.915Z,64.43
2022-09-15T11:22:49.897Z,63.87
2022-09-15T11:26:01.654Z,64.10
2022-09-15T11:29:15.169Z,64.57
2022-09-15T11:32:26.918Z,64.11
2022-09-15T11:35:39.217Z,64.36
2022-09-15T11:38:53.222Z,64.75
2022-09-15T11:42:08.725Z,64.57
2022-09-15T11:45:20.081Z,64.52
2022-09-15T11:48:31.674Z,65.03
2022-09-15T11:51:42.482Z,64.53
2022-09-15T11:54:54.861Z,64.91
2022-09-15T11:58:21.055Z,64.85
2022-09-15T12:01:31.364Z,64.40
2022-09-15T12:04:44.218Z,64.65
2022-09-15T12:07:56.961Z,64.19
2022-09-15T12:11:08.869Z,64.42
2022-09-15T12:14:18.302Z,64.35
2022-09-15T12:17:37.042Z,63.64
2022-09-15T12:20:49.989Z,63.83
2022-09-15T12:24:01.562Z,64.22
2022-09-15T12:27:11.526Z,63.60
2022-09-15T12:30:41.224Z,62.14
2022-09-15T12:33:57.048Z,62.57
2022-09-15T12:37:12.719Z,62.18
2022-09-15T12:40:33.833Z,62.44
2022-09-15T12:43:39.897Z,61.95
2022-09-15T12:46:54.400Z,61.85
2022-09-15T12:50:06.898Z,61.44
2022-09-15T12:53:22.931Z,61.11
2022-09-15T12:56:31.339Z,61.56
2022-09-15T12:59:37.213Z,62.16
2022-09-15T13:02:45.747Z,63.30
2022-09-15T13:06:10.114Z,63.59
2022-09-15T13:09:29.466Z,63.55
2022-09-15T13:12:42.512Z,63.29
2022-09-15T13:15:52.318Z,62.98
2022-09-15T13:19:07.559Z,62.18
2022-09-15T13:22:23.882Z,62.30
2022-09-15T13:25:31.912Z,62.57
2022-09-15T13:28:38.518Z,63.02
2022-09-15T13:31:53.514Z,63.42
2022-09-15T13:35:25.135Z,62.96
2022-09-15T13:38:52.114Z,62.79
2022-09-15T13:42:19.635Z,63.03
2022-09-15T13:45:42.818Z,63.55
2022-09-15T13:49:00.531Z,63.67
2022-09-15T13:52:25.269Z,63.60
2022-09-15T13:55:33.878Z,63.75
2022-09-15T13:59:06.761Z,63.99
2022-09-15T14:02:13.025Z,64.13
2022-09-15T14:05:21.419Z,64.52
2022-09-15T14:08:32.397Z,64.43
2022-09-15T14:11:40.791Z,64.07
2022-09-15T14:14:52.436Z,64.47
2022-09-15T14:17:58.702Z,64.35
2022-09-15T14:21:06.614Z,64.81
2022-09-15T14:24:22.623Z,65.04
2022-09-15T14:27:31.385Z,65.37
2022-09-15T14:30:38.263Z,65.78
2022-09-15T14:33:46.939Z,66.09
2022-09-15T14:37:04.671Z,66.12
2022-09-15T14:40:24.835Z,66.62
2022-09-15T14:43:35.732Z,66.53
2022-09-15T14:46:41.666Z,66.62
2022-09-15T14:49:45.918Z,66.96
2022-09-15T14:52:54.602Z,67.05
2022-09-15T14:56:08.310Z,67.10
2022-09-15T14:59:20.757Z,67.09
2022-09-15T15:02:35.325Z,67.28
2022-09-15T15:05:46.434Z,67.40
2022-09-15T15:08:58.286Z,67.54
2022-09-15T15:12:09.178Z,67.74
2022-09-15T15:15:17.143Z,67.91
2022-09-15T15:18:39.186Z,67.84
2022-09-15T15:21:48.323Z,67.85
2022-09-15T15:24:55.142Z,67.89
2022-09-15T15:28:02.099Z,68.24
2022-09-15T15:31:17.202Z,68.42
2022-09-15T15:34:26.674Z,68.31
2022-09-15T15:37:34.680Z,68.44
2022-09-15T15:40:41.903Z,68.34
2022-09-15T15:44:00.242Z,68.33
2022-09-15T15:47:26.478Z,68.47
2022-09-15T15:50:33.491Z,68.53
2022-09-15T15:53:40.345Z,68.64
2022-09-15T15:56:47.073Z,68.77
2022-09-15T16:00:00.722Z,68.94
2022-09-15T16:03:07.270Z,68.97
2022-09-15T16:06:13.637Z,69.04
2022-09-15T16:09:21.441Z,69.19
2022-09-15T16:12:30.690Z,69.21
2022-09-15T16:15:39.135Z,69.31
2022-09-15T16:18:43.586Z,69.36
2022-09-15T16:21:49.451Z,69.52
2022-09-15T16:24:55.809Z,69.48
2022-09-15T16:28:01.819Z,69.61
2022-09-15T16:31:10.330Z,69.69
2022-09-15T16:34:21.585Z,69.73
2022-09-15T16:37:27.473Z,69.75
2022-09-15T16:40:31.745Z,69.81
2022-09-15T16:43:37.650Z,69.83
2022-09-15T16:46:44.002Z,69.81
2022-09-15T16:49:51.367Z,69.84
2022-09-15T16:52:57.675Z,69.85
2022-09-15T16:56:03.879Z,69.82
2022-09-15T16:59:09.823Z,69.93
2022-09-15T17:02:15.394Z,69.96
2022-09-15T17:05:22.138Z,70.26
2022-09-15T17:08:30.278Z,70.27
2022-09-15T17:11:36.143Z,69.85
2022-09-15T17:14:42.020Z,69.50
2022-09-15T17:17:48.299Z,69.17
2022-09-15T17:20:54.270Z,69.04
2022-09-15T17:23:58.510Z,69.05
2022-09-15T17:27:04.386Z,69.13
2022-09-15T17:30:13.314Z,68.99
2022-09-15T17:33:20.886Z,68.80
2022-09-15T17:36:27.361Z,68.83
2022-09-15T17:39:34.322Z,68.80
2022-09-15T17:42:40.243Z,68.78
2022-09-15T17:45:44.531Z,68.88
2022-09-15T17:48:50.395Z,69.08
2022-09-15T17:51:56.268Z,69.05
2022-09-15T17:55:02.381Z,69.12
2022-09-15T17:58:08.550Z,69.12
2022-09-15T18:01:16.478Z,69.27
2022-09-15T18:04:22.473Z,69.37
2022-09-15T18:07:26.938Z,69.52
2022-09-15T18:10:34.022Z,69.67
2022-09-15T18:13:40.149Z,69.60
2022-09-15T18:16:47.051Z,69.59
2022-09-15T18:19:53.406Z,69.76
2022-09-15T18:23:00.321Z,69.77
2022-09-15T18:26:06.260Z,69.75
2022-09-15T18:29:10.542Z,70.04
2022-09-15T18:32:16.426Z,70.50
2022-09-15T18:35:24.077Z,70.72
2022-09-15T18:38:30.076Z,70.75
2022-09-15T18:41:37.652Z,70.58
2022-09-15T18:44:43.693Z,70.44
2022-09-15T18:47:51.929Z,70.43
2022-09-15T18:50:58.257Z,70.45
2022-09-15T18:54:04.783Z,70.80
2022-09-15T18:57:10.970Z,71.11
2022-09-15T19:00:19.742Z,71.42
2022-09-15T19:03:25.620Z,71.50
2022-09-15T19:06:31.847Z,71.40
2022-09-15T19:09:38.367Z,71.23
2022-09-15T19:12:44.620Z,71.17
2022-09-15T19:15:53.432Z,70.98
2022-09-15T19:18:59.679Z,70.97
2022-09-15T19:22:03.895Z,70.96
2022-09-15T19:25:12.236Z,71.04
2022-09-15T19:28:18.102Z,70.45
2022-09-15T19:31:24.623Z,70.26
2022-09-15T19:34:30.686Z,69.88
2022-09-15T19:37:36.898Z,69.60
2022-09-15T19:40:42.799Z,69.60
2022-09-15T19:43:48.697Z,69.27
2022-09-15T19:46:54.905Z,69.45
2022-09-15T19:50:00.975Z,69.41
2022-09-15T19:53:05.250Z,69.20
2022-09-15T19:56:17.059Z,69.33
2022-09-15T19:59:27.396Z,68.99
2022-09-15T20:02:36.513Z,68.97
2022-09-15T20:05:42.716Z,68.78
2022-09-15T20:08:48.890Z,68.68
2022-09-15T20:11:54.997Z,68.83
2022-09-15T20:15:01.075Z,68.94
2022-09-15T20:18:06.519Z,68.92
2022-09-15T20:21:26.769Z,69.22
2022-09-15T20:24:39.075Z,69.17
2022-09-15T20:27:45.398Z,69.15
2022-09-15T20:31:01.431Z,68.95
2022-09-15T20:34:07.592Z,68.79
2022-09-15T20:37:13.890Z,68.97
2022-09-15T20:40:20.076Z,68.93
2022-09-15T20:43:26.434Z,68.72
2022-09-15T20:46:32.645Z,68.81
2022-09-15T20:49:39.364Z,68.89
2022-09-15T20:52:45.751Z,68.72
2022-09-15T20:55:54.697Z,68.58
2022-09-15T20:59:01.866Z,68.48
2022-09-15T21:02:09.355Z,68.10
2022-09-15T21:05:15.486Z,68.19
2022-09-15T21:08:21.558Z,68.45
2022-09-15T21:11:26.705Z,68.36
2022-09-15T21:14:32.797Z,68.57
2022-09-15T21:17:37.421Z,68.69
2022-09-15T21:20:43.619Z,68.65
2022-09-15T21:23:51.573Z,68.45
2022-09-15T21:27:15.038Z,68.21
2022-09-15T21:30:21.823Z,68.39
2022-09-15T21:33:28.039Z,68.73
2022-09-15T21:36:34.582Z,68.99
2022-09-15T21:39:40.732Z,68.83
2022-09-15T21:42:46.922Z,69.02
2022-09-15T21:45:58.188Z,68.91
2022-09-15T21:49:04.391Z,68.44
2022-09-15T21:52:11.004Z,68.69
2022-09-15T21:55:17.197Z,68.43
2022-09-15T21:58:26.026Z,68.46
2022-09-15T22:01:34.139Z,68.37
2022-09-15T22:04:40.255Z,68.49
2022-09-15T22:07:44.691Z,68.44
2022-09-15T22:10:50.762Z,68.59
2022-09-15T22:13:55.907Z,68.63
2022-09-15T22:17:01.990Z,69.05
2022-09-15T22:20:09.383Z,68.90
2022-09-15T22:23:15.471Z,69.13
2022-09-15T22:26:20.970Z,69.10
2022-09-15T22:29:27.338Z,69.05
2022-09-15T22:32:33.474Z,68.54
2022-09-15T22:35:37.863Z,68.60
2022-09-15T22:38:44.499Z,68.50
2022-09-15T22:41:50.709Z,68.65
2022-09-15T22:44:55.436Z,68.64
2022-09-15T22:48:01.551Z,69.06
2022-09-15T22:51:05.918Z,69.48
2022-09-15T22:54:12.052Z,69.34
2022-09-15T22:57:16.446Z,68.99
2022-09-15T23:00:23.496Z,69.07
2022-09-15T23:03:29.447Z,69.09
2022-09-15T23:06:36.758Z,68.99
2022-09-15T23:09:42.720Z,68.98
2022-09-15T23:12:48.567Z,69.09
2022-09-15T23:15:54.489Z,69.07
2022-09-15T23:19:01.002Z,69.30
2022-09-15T23:22:06.927Z,69.06
2022-09-15T23:25:13.326Z,69.04
2022-09-15T23:28:19.448Z,69.19
2022-09-15T23:31:24.063Z,68.81
2022-09-15T23:34:30.051Z,69.02
2022-09-15T23:37:36.175Z,68.86
2022-09-15T23:40:41.427Z,68.98
2022-09-15T23:43:47.596Z,69.05
2022-09-15T23:46:53.574Z,68.97
2022-09-15T23:49:57.827Z,69.15
2022-09-15T23:53:03.750Z,69.22
2022-09-15T23:56:09.900Z,68.40
2022-09-15T23:59:14.139Z,68.55
